createdAt,value
2019-04-14T00:00:23.008Z,81.60
2019-04-14T00:02:55.483Z,81.90
2019-04-14T00:05:25.682Z,83.30
2019-04-14T00:07:55.995Z,83.40
2019-04-14T00:10:26.715Z,84.00
2019-04-14T00:12:57.714Z,78.40
2019-04-14T00:15:33.038Z,76.90
2019-04-14T00:17:59.684Z,74.50
2019-04-14T00:20:29.373Z,74.80
2019-04-14T00:22:59.778Z,74.30
2019-04-14T00:25:30.507Z,72.90
2019-04-14T00:28:00.774Z,71.80
2019-04-14T00:30:31.578Z,71.90
2019-04-14T00:33:09.106Z,71.30
2019-04-14T00:35:47.192Z,71.90
2019-04-14T00:38:25.896Z,71.80
2019-04-14T00:40:58.307Z,69.30
2019-04-14T00:43:30.886Z,68.50
2019-04-14T00:46:17.389Z,67.30
2019-04-14T00:48:49.664Z,66.00
2019-04-14T00:51:19.928Z,65.50
2019-04-14T00:53:49.694Z,64.60
2019-04-14T00:56:19.487Z,63.40
2019-04-14T00:58:49.689Z,63.90
2019-04-14T01:01:19.766Z,64.20
2019-04-14T01:03:50.549Z,63.20
2019-04-14T01:06:20.822Z,63.30
2019-04-14T01:08:51.128Z,64.40
2019-04-14T01:11:20.945Z,64.30
2019-04-14T01:13:50.827Z,64.90
2019-04-14T01:16:23.418Z,64.30
2019-04-14T01:18:51.816Z,64.70
2019-04-14T01:21:21.766Z,65.80
2019-04-14T01:23:52.340Z,64.80
2019-04-14T01:26:22.557Z,64.60
2019-04-14T01:28:53.114Z,64.00
2019-04-14T01:31:23.048Z,64.30
2019-04-14T01:33:53.378Z,64.30
2019-04-14T01:36:23.457Z,64.40
2019-04-14T01:38:53.641Z,64.90
2019-04-14T01:41:23.903Z,64.40
2019-04-14T01:43:53.952Z,64.20
2019-04-14T01:46:27.986Z,64.00
2019-04-14T01:48:56.344Z,63.60
2019-04-14T01:51:44.206Z,64.20
2019-04-14T01:54:32.348Z,63.70
2019-04-14T01:57:20.001Z,64.20
2019-04-14T01:59:50.337Z,64.00
2019-04-14T02:02:22.691Z,63.90
2019-04-14T02:04:52.913Z,63.40
2019-04-14T02:07:23.333Z,63.30
2019-04-14T02:09:53.345Z,63.80
2019-04-14T02:12:23.517Z,63.50
2019-04-14T02:14:54.087Z,63.60
2019-04-14T02:17:24.207Z,63.60
2019-04-14T02:19:54.649Z,63.80
2019-04-14T02:22:26.571Z,62.70
2019-04-14T02:24:57.091Z,63.30
2019-04-14T02:27:27.502Z,62.10
2019-04-14T02:29:58.252Z,62.10
2019-04-14T02:33:00.296Z,62.20
2019-04-14T02:35:32.657Z,62.00
2019-04-14T02:38:02.252Z,60.70
2019-04-14T02:40:43.973Z,61.20
2019-04-14T02:42:54.249Z,61.50
2019-04-14T02:45:35.158Z,61.40
2019-04-14T02:50:30.297Z,62.80
2019-04-14T02:53:10.957Z,62.00
2019-04-14T02:55:43.104Z,61.80
2019-04-14T02:58:10.464Z,61.00
2019-04-14T03:00:58.517Z,61.40
2019-04-14T03:03:15.994Z,62.80
2019-04-14T03:05:44.422Z,62.30
2019-04-14T03:08:20.341Z,62.60
2019-04-14T03:15:48.233Z,63.00
2019-04-14T03:18:42.779Z,62.60
2019-04-14T03:21:16.926Z,63.00
2019-04-14T03:29:02.394Z,64.20
2019-04-14T03:34:24.250Z,64.60
2019-04-14T03:37:24.074Z,65.30
2019-04-14T03:44:11.769Z,63.70
2019-04-14T03:46:45.322Z,64.00
2019-04-14T03:51:44.716Z,64.30
2019-04-14T03:54:21.703Z,63.80
2019-04-14T03:56:51.434Z,63.90
2019-04-14T03:59:21.884Z,63.90
2019-04-14T04:01:52.299Z,63.30
2019-04-14T04:04:22.726Z,63.10
2019-04-14T04:06:53.159Z,63.40
2019-04-14T04:09:25.628Z,62.90
2019-04-14T04:11:56.347Z,62.80
2019-04-14T04:14:27.100Z,62.40
2019-04-14T04:16:59.489Z,61.50
2019-04-14T04:19:31.581Z,61.70
2019-04-14T04:22:15.071Z,61.50
2019-04-14T04:24:50.017Z,62.20
2019-04-14T04:27:33.167Z,62.90
2019-04-14T04:30:21.005Z,62.30
2019-04-14T04:33:04.447Z,61.40
2019-04-14T04:35:36.875Z,62.40
2019-04-14T04:38:09.587Z,63.20
2019-04-14T04:40:39.739Z,62.80
2019-04-14T04:43:10.154Z,63.50
2019-04-14T04:45:40.803Z,62.80
2019-04-14T04:48:10.874Z,62.90
2019-04-14T04:50:41.023Z,63.30
2019-04-14T04:53:11.500Z,63.50
2019-04-14T04:55:41.684Z,63.90
2019-04-14T04:58:12.076Z,63.20
2019-04-14T05:00:41.897Z,63.70
2019-04-14T05:03:12.459Z,63.40
2019-04-14T05:06:11.341Z,63.20
2019-04-14T05:08:43.486Z,63.40
2019-04-14T05:11:25.068Z,63.40
2019-04-14T05:13:57.565Z,64.50
2019-04-14T05:16:28.162Z,64.50
2019-04-14T05:19:11.424Z,63.50
2019-04-14T05:21:29.985Z,64.20
2019-04-14T05:24:00.899Z,64.70
2019-04-14T05:26:30.863Z,64.50
2019-04-14T05:29:01.429Z,64.60
2019-04-14T05:31:32.098Z,63.80
2019-04-14T05:34:02.228Z,63.20
2019-04-14T05:36:32.507Z,62.90
2019-04-14T05:39:02.504Z,64.30
2019-04-14T05:41:33.377Z,62.90
2019-04-14T05:44:04.676Z,63.00
2019-04-14T05:46:34.231Z,62.50
2019-04-14T05:49:04.385Z,62.70
2019-04-14T05:51:35.187Z,62.40
2019-04-14T05:54:05.664Z,62.50
2019-04-14T05:56:37.537Z,62.40
2019-04-14T05:59:06.771Z,61.80
2019-04-14T06:01:36.643Z,62.80
2019-04-14T06:04:07.108Z,62.50
2019-04-14T06:06:36.829Z,62.20
2019-04-14T06:09:08.683Z,62.40
2019-04-14T06:11:38.295Z,62.60
2019-04-14T06:14:08.007Z,63.40
2019-04-14T06:16:37.627Z,63.90
2019-04-14T06:19:07.222Z,64.80
2019-04-14T06:21:36.831Z,64.50
2019-04-14T06:24:06.540Z,66.50
2019-04-14T06:26:36.149Z,67.90
2019-04-14T06:29:05.860Z,69.00
2019-04-14T06:31:52.261Z,70.30
2019-04-14T06:34:26.378Z,69.30
2019-04-14T06:36:57.621Z,70.30
2019-04-14T06:39:29.582Z,71.60
2019-04-14T06:41:59.294Z,69.70
2019-04-14T06:44:28.831Z,69.80
2019-04-14T06:46:58.388Z,69.20
2019-04-14T06:49:27.927Z,69.30
2019-04-14T06:51:57.478Z,68.80
2019-04-14T06:54:27.128Z,70.00
2019-04-14T06:56:56.739Z,67.50
2019-04-14T06:59:26.347Z,67.20
2019-04-14T07:01:56.055Z,67.60
2019-04-14T07:04:25.856Z,66.20
2019-04-14T07:06:55.478Z,66.00
2019-04-14T07:09:25.082Z,66.10
2019-04-14T07:11:54.825Z,65.20
2019-04-14T07:14:24.605Z,65.10
2019-04-14T07:16:54.213Z,65.30
2019-04-14T07:19:23.820Z,64.20
2019-04-14T07:21:53.429Z,64.80
2019-04-14T07:24:23.041Z,63.50
2019-04-14T07:26:52.647Z,63.30
2019-04-14T07:29:23.586Z,63.60
2019-04-14T07:32:00.667Z,63.30
2019-04-14T07:34:31.913Z,63.90
2019-04-14T07:37:09.097Z,62.90
2019-04-14T07:39:40.348Z,61.90
2019-04-14T07:42:23.675Z,62.20
2019-04-14T07:45:07.107Z,61.20
2019-04-14T07:47:38.352Z,61.40
2019-04-14T07:50:24.754Z,61.60
2019-04-14T07:52:56.105Z,60.80
2019-04-14T07:55:43.762Z,60.70
2019-04-14T07:58:14.978Z,60.80
2019-04-14T08:00:53.177Z,60.40
2019-04-14T08:03:24.541Z,60.30
2019-04-14T08:05:54.146Z,60.00
2019-04-14T08:08:23.857Z,61.50
2019-04-14T08:10:53.464Z,60.40
2019-04-14T08:13:23.276Z,59.20
2019-04-14T08:15:52.987Z,60.40
2019-04-14T08:18:22.699Z,59.60
2019-04-14T08:20:52.307Z,59.40
2019-04-14T08:23:22.015Z,60.00
2019-04-14T08:25:51.740Z,59.80
2019-04-14T08:28:21.525Z,59.80
2019-04-14T08:30:51.146Z,59.70
2019-04-14T08:33:20.966Z,59.60
2019-04-14T08:35:50.669Z,59.40
2019-04-14T08:38:20.276Z,59.90
2019-04-14T08:40:50.498Z,59.80
2019-04-14T08:43:22.749Z,60.00
2019-04-14T08:46:02.822Z,58.60
2019-04-14T08:48:39.905Z,59.60
2019-04-14T08:51:11.151Z,59.80
2019-04-14T08:53:48.256Z,59.70
2019-04-14T08:56:19.830Z,59.60
2019-04-14T08:58:56.769Z,58.90
2019-04-14T09:01:28.118Z,59.60
2019-04-14T09:03:59.364Z,61.10
2019-04-14T09:06:30.721Z,61.40
2019-04-14T09:09:07.708Z,61.20
2019-04-14T09:11:39.043Z,61.00
2019-04-14T09:14:08.764Z,59.90
2019-04-14T09:16:38.359Z,60.60
2019-04-14T09:19:08.211Z,60.70
2019-04-14T09:21:39.009Z,59.40
2019-04-14T09:24:08.619Z,60.20
2019-04-14T09:26:39.258Z,59.10
2019-04-14T09:29:08.858Z,58.80
2019-04-14T09:31:38.466Z,58.60
2019-04-14T09:34:08.071Z,59.30
2019-04-14T09:36:37.887Z,59.40
2019-04-14T09:39:07.903Z,58.90
2019-04-14T09:41:39.664Z,59.40
2019-04-14T09:44:10.292Z,59.80
2019-04-14T09:46:39.903Z,59.40
2019-04-14T09:49:10.533Z,59.60
2019-04-14T09:51:40.242Z,59.80
2019-04-14T09:54:09.952Z,59.30
2019-04-14T09:56:40.685Z,59.00
2019-04-14T09:59:10.396Z,59.00
2019-04-14T10:01:40.009Z,58.20
2019-04-14T10:04:09.612Z,58.10
2019-04-14T10:06:40.905Z,57.90
2019-04-14T10:09:10.468Z,57.10
2019-04-14T10:11:48.481Z,56.20
2019-04-14T10:14:11.525Z,55.50
2019-04-14T10:16:41.134Z,54.20
2019-04-14T10:19:10.742Z,54.60
2019-04-14T10:21:40.657Z,54.40
2019-04-14T10:24:11.806Z,53.80
2019-04-14T10:26:42.536Z,53.80
2019-04-14T10:29:12.373Z,53.40
2019-04-14T10:31:41.955Z,54.20
2019-04-14T10:34:12.695Z,54.90
2019-04-14T10:36:42.300Z,53.90
2019-04-14T10:39:11.905Z,53.70
2019-04-14T10:41:41.719Z,52.30
2019-04-14T10:44:11.326Z,52.00
2019-04-14T10:46:40.933Z,53.50
2019-04-14T10:49:10.541Z,53.80
2019-04-14T10:51:40.258Z,53.80
2019-04-14T10:54:09.859Z,52.80
2019-04-14T10:56:39.467Z,52.30
2019-04-14T10:59:09.077Z,52.40
2019-04-14T11:01:39.809Z,54.00
2019-04-14T11:04:09.621Z,54.80
2019-04-14T11:06:49.676Z,53.70
2019-04-14T11:09:19.282Z,54.30
2019-04-14T11:11:48.890Z,53.60
2019-04-14T11:14:19.018Z,53.00
2019-04-14T11:16:48.822Z,53.50
2019-04-14T11:19:18.431Z,53.40
2019-04-14T11:21:49.163Z,53.70
2019-04-14T11:24:20.411Z,54.50
2019-04-14T11:26:50.122Z,54.60
2019-04-14T11:29:19.742Z,55.30
2019-04-14T11:31:51.078Z,53.70
2019-04-14T11:34:34.307Z,53.10
2019-04-14T11:37:11.901Z,51.30
2019-04-14T11:39:42.837Z,50.40
2019-04-14T11:42:12.960Z,51.20
2019-04-14T11:44:42.569Z,49.70
2019-04-14T11:47:12.177Z,49.30
2019-04-14T11:49:41.871Z,48.60
2019-04-14T11:52:11.597Z,48.50
2019-04-14T11:54:43.361Z,50.40
2019-04-14T11:57:13.055Z,51.60
2019-04-14T11:59:46.869Z,52.20
2019-04-14T12:02:18.422Z,51.90
2019-04-14T12:04:51.820Z,52.90
2019-04-14T12:07:26.029Z,52.20
2019-04-14T12:09:57.694Z,52.70
2019-04-14T12:12:27.303Z,50.80
2019-04-14T12:14:57.010Z,53.60
2019-04-14T12:17:26.623Z,54.10
2019-04-14T12:19:59.198Z,52.70
2019-04-14T12:22:28.818Z,53.00
2019-04-14T12:24:58.411Z,52.10
2019-04-14T12:27:28.123Z,52.60
2019-04-14T12:29:58.857Z,50.50
2019-04-14T12:32:30.196Z,50.60
2019-04-14T12:34:59.812Z,52.00
2019-04-14T12:37:29.421Z,51.90
2019-04-14T12:39:59.029Z,52.60
2019-04-14T12:42:47.379Z,53.20
2019-04-14T12:45:30.605Z,53.10
2019-04-14T12:48:01.919Z,53.50
2019-04-14T12:50:33.300Z,52.60
2019-04-14T12:53:03.115Z,53.60
2019-04-14T12:55:32.823Z,53.50
2019-04-14T12:58:06.725Z,53.50
2019-04-14T13:00:38.082Z,54.50
2019-04-14T13:03:07.795Z,54.40
2019-04-14T13:05:39.556Z,55.70
2019-04-14T13:08:09.582Z,56.20
2019-04-14T13:10:42.492Z,59.10
2019-04-14T13:13:11.956Z,57.70
2019-04-14T13:15:41.976Z,57.40
2019-04-14T13:18:11.582Z,57.00
2019-04-14T13:20:41.191Z,57.10
2019-04-14T13:23:10.800Z,56.50
2019-04-14T13:25:43.580Z,57.00
2019-04-14T13:28:14.013Z,58.60
2019-04-14T13:30:47.194Z,57.40
2019-04-14T13:33:16.930Z,57.40
2019-04-14T13:35:46.619Z,57.80
2019-04-14T13:38:16.230Z,57.90
2019-04-14T13:40:45.835Z,57.70
2019-04-14T13:43:19.530Z,57.80
2019-04-14T13:45:49.853Z,57.70
2019-04-14T13:48:19.471Z,57.70
2019-04-14T13:50:54.673Z,56.70
2019-04-14T13:53:21.661Z,57.50
2019-04-14T13:55:57.482Z,57.20
2019-04-14T13:58:27.118Z,57.60
2019-04-14T14:00:58.161Z,57.70
2019-04-14T14:03:27.872Z,58.70
2019-04-14T14:05:58.000Z,59.50
2019-04-14T14:08:28.113Z,59.80
2019-04-14T14:10:59.972Z,60.60
2019-04-14T14:13:38.181Z,59.90
2019-04-14T14:16:18.753Z,59.10
2019-04-14T14:19:08.221Z,59.30
2019-04-14T14:21:39.904Z,58.70
2019-04-14T14:24:22.116Z,58.00
2019-04-14T14:26:53.315Z,58.90
2019-04-14T14:29:23.354Z,58.40
2019-04-14T14:31:53.567Z,57.10
2019-04-14T14:34:23.479Z,57.10
2019-04-14T14:36:53.088Z,56.70
2019-04-14T14:39:22.797Z,55.80
2019-04-14T14:41:52.406Z,56.80
2019-04-14T14:44:23.652Z,56.20
2019-04-14T14:46:54.899Z,56.20
2019-04-14T14:49:26.144Z,56.80
2019-04-14T14:51:57.391Z,56.80
2019-04-14T14:54:26.984Z,57.00
2019-04-14T14:56:56.629Z,58.00
2019-04-14T14:59:26.324Z,58.10
2019-04-14T15:01:56.017Z,58.50
2019-04-14T15:04:26.045Z,58.20
2019-04-14T15:06:55.671Z,57.60
2019-04-14T15:09:25.261Z,57.20
2019-04-14T15:11:54.869Z,56.30
2019-04-14T15:14:24.479Z,57.00
2019-04-14T15:16:54.289Z,57.00
2019-04-14T15:19:24.087Z,57.20
2019-04-14T15:21:53.710Z,57.20
2019-04-14T15:24:23.317Z,57.30
2019-04-14T15:26:52.928Z,57.40
2019-04-14T15:29:22.535Z,57.70
2019-04-14T15:31:52.346Z,58.60
2019-04-14T15:34:21.953Z,58.20
2019-04-14T15:36:54.531Z,58.50
2019-04-14T15:39:24.138Z,58.50
2019-04-14T15:41:53.747Z,58.10
2019-04-14T15:44:23.272Z,58.30
2019-04-14T15:46:52.861Z,58.40
2019-04-14T15:49:22.469Z,58.10
2019-04-14T15:51:52.178Z,57.90
2019-04-14T15:54:21.789Z,57.90
2019-04-14T15:56:58.766Z,57.30
2019-04-14T15:59:38.922Z,57.20
2019-04-14T16:02:16.312Z,57.50
2019-04-14T16:04:53.498Z,57.40
2019-04-14T16:07:44.202Z,57.00
2019-04-14T16:10:15.494Z,56.80
2019-04-14T16:12:49.674Z,57.10
2019-04-14T16:15:39.341Z,56.60
2019-04-14T16:18:26.869Z,56.80
2019-04-14T16:20:58.012Z,56.70
2019-04-14T16:23:27.742Z,56.50
2019-04-14T16:26:15.251Z,57.20
2019-04-14T16:28:46.599Z,57.00
2019-04-14T16:31:34.537Z,57.00
2019-04-14T16:34:20.941Z,56.50
2019-04-14T16:36:52.289Z,57.50
2019-04-14T16:39:22.045Z,56.70
2019-04-14T16:41:52.663Z,57.40
2019-04-14T16:44:22.342Z,57.40
2019-04-14T16:46:53.074Z,57.10
2019-04-14T16:49:22.784Z,57.90
2019-04-14T16:51:54.135Z,57.40
2019-04-14T16:54:25.383Z,57.30
2019-04-14T16:57:02.260Z,57.90
2019-04-14T16:59:32.070Z,57.90
2019-04-14T17:02:10.757Z,58.00
2019-04-14T17:04:33.949Z,58.80
2019-04-14T17:07:03.661Z,58.30
2019-04-14T17:09:33.471Z,58.20
2019-04-14T17:12:03.288Z,58.10
2019-04-14T17:14:36.207Z,58.40
2019-04-14T17:17:10.371Z,58.60
2019-04-14T17:19:57.250Z,58.50
2019-04-14T17:22:29.877Z,59.00
2019-04-14T17:25:10.031Z,59.00
2019-04-14T17:27:51.006Z,59.10
2019-04-14T17:30:25.424Z,59.60
2019-04-14T17:33:05.275Z,60.10
2019-04-14T17:35:40.515Z,60.90
2019-04-14T17:38:12.158Z,62.40
2019-04-14T17:40:45.976Z,62.30
2019-04-14T17:43:21.426Z,63.00
2019-04-14T17:45:55.435Z,65.20
2019-04-14T17:48:42.960Z,65.10
2019-04-14T17:51:16.861Z,68.10
2019-04-14T17:53:48.124Z,68.80
2019-04-14T17:56:25.493Z,69.10
2019-04-14T17:58:57.057Z,70.00
2019-04-14T18:01:28.611Z,69.50
2019-04-14T18:04:00.168Z,67.70
2019-04-14T18:06:33.053Z,70.70
2019-04-14T18:09:10.133Z,72.90
2019-04-14T18:11:50.493Z,71.60
2019-04-14T18:14:30.553Z,73.60
2019-04-14T18:17:17.157Z,72.60
2019-04-14T18:19:48.403Z,73.00
2019-04-14T18:22:18.108Z,74.30
2019-04-14T18:24:47.819Z,73.00
2019-04-14T18:27:17.429Z,73.90
2019-04-14T18:29:51.438Z,73.60
2019-04-14T18:32:25.451Z,74.10
2019-04-14T18:35:03.704Z,74.70
2019-04-14T18:37:36.133Z,73.60
2019-04-14T18:40:10.255Z,74.30
2019-04-14T18:42:41.698Z,74.80
2019-04-14T18:45:16.117Z,75.80
2019-04-14T18:48:03.735Z,76.00
2019-04-14T18:50:44.212Z,76.80
2019-04-14T18:53:15.457Z,76.30
2019-04-14T18:58:01.366Z,71.80
2019-04-14T19:00:49.199Z,73.10
2019-04-14T19:03:18.908Z,71.00
2019-04-14T19:05:48.518Z,71.20
2019-04-14T19:08:18.227Z,71.00
2019-04-14T19:10:54.592Z,71.90
2019-04-14T19:13:31.676Z,72.90
2019-04-14T19:16:05.584Z,73.70
2019-04-14T19:18:36.832Z,73.70
2019-04-14T19:21:08.078Z,73.90
2019-04-14T19:23:37.788Z,74.40
2019-04-14T19:26:07.805Z,74.20
2019-04-14T19:28:38.949Z,75.70
2019-04-14T19:31:08.660Z,75.90
2019-04-14T19:33:39.290Z,76.20
2019-04-14T19:36:09.746Z,76.80
2019-04-14T19:38:39.427Z,76.90
2019-04-14T19:41:09.036Z,77.10
2019-04-14T19:43:38.641Z,77.10
2019-04-14T19:46:08.355Z,77.60
2019-04-14T19:48:38.574Z,78.30
2019-04-14T19:51:08.183Z,79.10
2019-04-14T19:53:37.829Z,78.20
2019-04-14T19:56:07.602Z,78.90
2019-04-14T19:58:37.212Z,79.80
2019-04-14T20:01:07.948Z,80.00
2019-04-14T20:03:39.195Z,80.10
2019-04-14T20:06:08.797Z,79.80
2019-04-14T20:08:40.967Z,80.10
2019-04-14T20:11:11.293Z,80.80
2019-04-14T20:13:46.620Z,80.70
2019-04-14T20:16:35.599Z,81.10
2019-04-14T20:19:23.226Z,81.70
2019-04-14T20:21:57.289Z,81.60
2019-04-14T20:24:34.327Z,82.00
2019-04-14T20:27:05.669Z,82.10
2019-04-14T20:29:49.106Z,82.10
2019-04-14T20:32:29.346Z,81.80
2019-04-14T20:35:00.301Z,81.90
2019-04-14T20:37:30.212Z,82.00
2019-04-14T20:39:59.925Z,82.10
2019-04-14T20:42:30.658Z,81.90
2019-04-14T20:45:00.472Z,81.40
2019-04-14T20:47:30.077Z,81.20
2019-04-14T20:49:59.787Z,81.60
2019-04-14T20:52:29.398Z,82.00
2019-04-14T20:54:59.107Z,82.30
2019-04-14T20:57:28.818Z,82.20
2019-04-14T20:59:59.447Z,81.80
2019-04-14T21:02:30.695Z,81.50
2019-04-14T21:05:04.488Z,81.50
2019-04-14T21:07:52.132Z,81.00
2019-04-14T21:10:23.377Z,80.70
2019-04-14T21:12:54.726Z,81.20
2019-04-14T21:15:27.098Z,81.30
2019-04-14T21:18:07.152Z,81.40
2019-04-14T21:20:41.164Z,81.60
2019-04-14T21:23:15.276Z,83.20
2019-04-14T21:26:00.786Z,84.20
2019-04-14T21:28:45.484Z,84.80
2019-04-14T21:31:17.792Z,85.10
2019-04-14T21:33:49.043Z,85.60
2019-04-14T21:36:32.572Z,85.70
2019-04-14T21:39:06.787Z,86.00
2019-04-14T21:41:38.034Z,86.30
2019-04-14T21:44:07.745Z,86.10
2019-04-14T21:46:37.351Z,86.50
2019-04-14T21:49:06.958Z,86.40
2019-04-14T21:51:56.126Z,86.50
2019-04-14T21:54:25.738Z,86.60
2019-04-14T21:57:15.002Z,86.50
2019-04-14T22:00:02.625Z,85.90
2019-04-14T22:02:51.695Z,85.90
2019-04-14T22:05:40.970Z,85.60
2019-04-14T22:08:25.430Z,85.70
2019-04-14T22:10:57.998Z,85.80
2019-04-14T22:13:27.608Z,86.20
2019-04-14T22:15:57.330Z,86.10
2019-04-14T22:18:27.231Z,86.10
2019-04-14T22:20:56.842Z,85.90
2019-04-14T22:23:26.447Z,85.90
2019-04-14T22:25:56.055Z,85.70
2019-04-14T22:28:25.766Z,85.80
2019-04-14T22:30:55.373Z,86.00
2019-04-14T22:33:24.983Z,86.00
2019-04-14T22:35:54.692Z,85.80
2019-04-14T22:38:24.402Z,85.60
2019-04-14T22:40:54.111Z,85.50
2019-04-14T22:43:23.822Z,85.90
2019-04-14T22:45:53.431Z,85.70
2019-04-14T22:48:23.140Z,85.70
2019-04-14T22:50:53.774Z,86.00
2019-04-14T22:53:23.484Z,85.60
2019-04-14T22:55:53.192Z,86.40
2019-04-14T22:58:22.804Z,86.60
2019-04-14T23:00:55.468Z,86.70
2019-04-14T23:03:43.110Z,86.60
2019-04-14T23:06:29.410Z,86.40
2019-04-14T23:09:18.890Z,87.60
2019-04-14T23:12:06.514Z,87.20
2019-04-14T23:14:46.467Z,87.30
2019-04-14T23:17:20.363Z,87.50
2019-04-14T23:20:03.703Z,87.50
2019-04-14T23:22:51.231Z,87.60
2019-04-14T23:25:21.044Z,87.60
2019-04-14T23:27:50.755Z,88.10
2019-04-14T23:30:20.466Z,88.00
2019-04-14T23:32:50.992Z,88.10
2019-04-14T23:35:20.705Z,87.80
2019-04-14T23:37:50.417Z,87.70
2019-04-14T23:40:20.125Z,87.70
2019-04-14T23:42:49.732Z,87.70
2019-04-14T23:45:19.442Z,87.70
2019-04-14T23:47:49.051Z,87.50
2019-04-14T23:50:18.862Z,87.60
2019-04-14T23:52:48.470Z,87.30
2019-04-14T23:55:18.081Z,87.40
2019-04-14T23:57:47.688Z,86.70
